sensor_id;sensor_type;location;lat;lon;timestamp;pressure;altitude;pressure_sealevel;temperature;humidity
41830;BME280;38614;43.472;23.936;2022-07-17T00:01:07;100409.28;;;19.84;nan
41830;BME280;38614;43.472;23.936;2022-07-17T00:03:55;100397.75;;;19.75;nan
41830;BME280;38614;43.472;23.936;2022-07-17T00:06:43;100439.22;;;19.90;nan
41830;BME280;38614;43.472;23.936;2022-07-17T00:09:30;100444.47;;;19.88;nan
41830;BME280;38614;43.472;23.936;2022-07-17T00:12:19;100430.34;;;19.54;nan
41830;BME280;38614;43.472;23.936;2022-07-17T00:15:07;100403.53;;;19.50;nan
41830;BME280;38614;43.472;23.936;2022-07-17T00:17:55;100439.03;;;19.71;nan
41830;BME280;38614;43.472;23.936;2022-07-17T00:20:43;100443.41;;;19.72;nan
41830;BME280;38614;43.472;23.936;2022-07-17T00:23:31;100446.31;;;19.61;nan
41830;BME280;38614;43.472;23.936;2022-07-17T00:26:29;100441.56;;;19.54;nan
41830;BME280;38614;43.472;23.936;2022-07-17T00:29:18;100461.88;;;19.69;nan
41830;BME280;38614;43.472;23.936;2022-07-17T00:32:06;100445.88;;;19.66;nan
41830;BME280;38614;43.472;23.936;2022-07-17T00:34:54;100460.28;;;19.68;nan
41830;BME280;38614;43.472;23.936;2022-07-17T00:37:43;100469.47;;;19.69;nan
41830;BME280;38614;43.472;23.936;2022-07-17T00:40:31;100436.75;;;19.55;nan
41830;BME280;38614;43.472;23.936;2022-07-17T00:43:19;100464.72;;;19.62;nan
41830;BME280;38614;43.472;23.936;2022-07-17T00:46:06;100443.19;;;19.48;nan
41830;BME280;38614;43.472;23.936;2022-07-17T00:48:54;100465.19;;;19.57;nan
41830;BME280;38614;43.472;23.936;2022-07-17T00:51:42;100468.75;;;19.54;nan
41830;BME280;38614;43.472;23.936;2022-07-17T00:54:30;100465.25;;;19.43;nan
41830;BME280;38614;43.472;23.936;2022-07-17T00:57:18;100474.88;;;19.45;nan
41830;BME280;38614;43.472;23.936;2022-07-17T01:00:08;100474.13;;;19.34;nan
41830;BME280;38614;43.472;23.936;2022-07-17T01:02:58;100459.38;;;19.23;nan
41830;BME280;38614;43.472;23.936;2022-07-17T01:05:46;100437.88;;;19.05;nan
41830;BME280;38614;43.472;23.936;2022-07-17T01:08:34;100472.59;;;19.22;nan
41830;BME280;38614;43.472;23.936;2022-07-17T01:11:23;100473.50;;;19.08;nan
41830;BME280;38614;43.472;23.936;2022-07-17T01:14:11;100465.53;;;19.00;nan
41830;BME280;38614;43.472;23.936;2022-07-17T01:16:59;100471.19;;;18.93;nan
41830;BME280;38614;43.472;23.936;2022-07-17T01:19:47;100446.91;;;18.65;nan
41830;BME280;38614;43.472;23.936;2022-07-17T01:22:45;100482.00;;;18.91;nan
41830;BME280;38614;43.472;23.936;2022-07-17T01:25:34;100459.69;;;18.73;nan
41830;BME280;38614;43.472;23.936;2022-07-17T01:28:21;100474.09;;;18.71;nan
41830;BME280;38614;43.472;23.936;2022-07-17T01:31:09;100450.91;;;18.57;nan
41830;BME280;38614;43.472;23.936;2022-07-17T01:33:58;100486.91;;;18.62;nan
41830;BME280;38614;43.472;23.936;2022-07-17T01:36:46;100495.69;;;18.67;nan
41830;BME280;38614;43.472;23.936;2022-07-17T01:39:33;100466.56;;;18.43;nan
41830;BME280;38614;43.472;23.936;2022-07-17T01:42:46;100489.25;;;18.70;nan
41830;BME280;38614;43.472;23.936;2022-07-17T01:45:34;100494.81;;;18.85;nan
41830;BME280;38614;43.472;23.936;2022-07-17T01:48:24;100492.84;;;18.78;nan
41830;BME280;38614;43.472;23.936;2022-07-17T01:51:12;100482.47;;;18.68;nan
41830;BME280;38614;43.472;23.936;2022-07-17T01:53:59;100479.69;;;18.68;nan
41830;BME280;38614;43.472;23.936;2022-07-17T01:56:47;100486.84;;;18.76;nan
41830;BME280;38614;43.472;23.936;2022-07-17T01:59:36;100503.25;;;18.81;nan
41830;BME280;38614;43.472;23.936;2022-07-17T02:02:23;100460.09;;;18.61;nan
41830;BME280;38614;43.472;23.936;2022-07-17T02:05:12;100502.47;;;18.73;nan
41830;BME280;38614;43.472;23.936;2022-07-17T02:08:01;100497.25;;;18.75;nan
41830;BME280;38614;43.472;23.936;2022-07-17T02:10:48;100509.22;;;18.83;nan
41830;BME280;38614;43.472;23.936;2022-07-17T02:13:36;100486.06;;;18.68;nan
41830;BME280;38614;43.472;23.936;2022-07-17T02:16:24;100502.47;;;18.73;nan
41830;BME280;38614;43.472;23.936;2022-07-17T02:19:12;100488.13;;;18.54;nan
41830;BME280;38614;43.472;23.936;2022-07-17T02:21:59;100497.31;;;18.65;nan
41830;BME280;38614;43.472;23.936;2022-07-17T02:24:47;100460.97;;;18.33;nan
41830;BME280;38614;43.472;23.936;2022-07-17T02:27:35;100487.69;;;18.51;nan
41830;BME280;38614;43.472;23.936;2022-07-17T02:30:23;100467.41;;;18.26;nan
41830;BME280;38614;43.472;23.936;2022-07-17T02:33:11;100508.16;;;18.38;nan
41830;BME280;38614;43.472;23.936;2022-07-17T02:35:59;100522.94;;;18.31;nan
41830;BME280;38614;43.472;23.936;2022-07-17T02:38:48;100510.97;;;18.34;nan
41830;BME280;38614;43.472;23.936;2022-07-17T02:41:36;100508.56;;;18.29;nan
41830;BME280;38614;43.472;23.936;2022-07-17T02:44:26;100489.81;;;18.05;nan
41830;BME280;38614;43.472;23.936;2022-07-17T02:47:23;100524.16;;;18.12;nan
41830;BME280;38614;43.472;23.936;2022-07-17T02:50:11;100535.34;;;18.19;nan
41830;BME280;38614;43.472;23.936;2022-07-17T02:52:59;100526.97;;;18.12;nan
41830;BME280;38614;43.472;23.936;2022-07-17T02:55:47;100531.75;;;18.05;nan
41830;BME280;38614;43.472;23.936;2022-07-17T02:58:35;100522.97;;;17.95;nan
41830;BME280;38614;43.472;23.936;2022-07-17T03:01:22;100506.59;;;17.76;nan
41830;BME280;38614;43.472;23.936;2022-07-17T03:04:10;100538.56;;;18.07;nan
41830;BME280;38614;43.472;23.936;2022-07-17T03:06:58;100539.75;;;18.10;nan
41830;BME280;38614;43.472;23.936;2022-07-17T03:09:45;100542.16;;;18.04;nan
41830;BME280;38614;43.472;23.936;2022-07-17T03:12:33;100518.97;;;17.86;nan
41830;BME280;38614;43.472;23.936;2022-07-17T03:15:21;100532.97;;;17.82;nan
41830;BME280;38614;43.472;23.936;2022-07-17T03:18:09;100531.38;;;17.78;nan
41830;BME280;38614;43.472;23.936;2022-07-17T03:20:57;100541.75;;;17.84;nan
41830;BME280;38614;43.472;23.936;2022-07-17T03:23:44;100554.94;;;17.84;nan
41830;BME280;38614;43.472;23.936;2022-07-17T03:26:32;100554.53;;;17.78;nan
41830;BME280;38614;43.472;23.936;2022-07-17T03:29:20;100562.50;;;17.76;nan
41830;BME280;38614;43.472;23.936;2022-07-17T03:32:08;100556.53;;;17.81;nan
41830;BME280;38614;43.472;23.936;2022-07-17T03:34:56;100561.28;;;17.63;nan
41830;BME280;38614;43.472;23.936;2022-07-17T03:37:43;100556.13;;;17.72;nan
41830;BME280;38614;43.472;23.936;2022-07-17T03:40:31;100545.28;;;17.67;nan
41830;BME280;38614;43.472;23.936;2022-07-17T03:43:19;100561.31;;;17.70;nan
41830;BME280;38614;43.472;23.936;2022-07-17T03:46:07;100562.13;;;17.81;nan
41830;BME280;38614;43.472;23.936;2022-07-17T03:48:54;100552.13;;;17.77;nan
41830;BME280;38614;43.472;23.936;2022-07-17T03:51:42;100527.75;;;17.59;nan
41830;BME280;38614;43.472;23.936;2022-07-17T03:54:30;100548.53;;;17.73;nan
41830;BME280;38614;43.472;23.936;2022-07-17T03:57:17;100555.75;;;17.81;nan
41830;BME280;38614;43.472;23.936;2022-07-17T04:00:06;100566.94;;;17.99;nan
41830;BME280;38614;43.472;23.936;2022-07-17T04:03:01;100567.31;;;18.04;nan
41830;BME280;38614;43.472;23.936;2022-07-17T04:05:49;100571.72;;;18.09;nan
41830;BME280;38614;43.472;23.936;2022-07-17T04:08:36;100552.53;;;18.04;nan
41830;BME280;38614;43.472;23.936;2022-07-17T04:11:24;100582.91;;;18.34;nan
41830;BME280;38614;43.472;23.936;2022-07-17T04:14:12;100560.53;;;18.16;nan
41830;BME280;38614;43.472;23.936;2022-07-17T04:16:59;100587.66;;;18.33;nan
41830;BME280;38614;43.472;23.936;2022-07-17T04:19:48;100565.31;;;18.26;nan
41830;BME280;38614;43.472;23.936;2022-07-17T04:22:39;100600.03;;;18.61;nan
41830;BME280;38614;43.472;23.936;2022-07-17T04:25:26;100570.06;;;18.50;nan
41830;BME280;38614;43.472;23.936;2022-07-17T04:28:17;100587.25;;;18.74;nan
41830;BME280;38614;43.472;23.936;2022-07-17T04:31:04;100592.41;;;18.79;nan
41830;BME280;38614;43.472;23.936;2022-07-17T04:33:52;100590.88;;;18.71;nan
41830;BME280;38614;43.472;23.936;2022-07-17T04:36:41;100589.22;;;18.84;nan
41830;BME280;38614;43.472;23.936;2022-07-17T04:39:29;100604.72;;;19.10;nan
41830;BME280;38614;43.472;23.936;2022-07-17T04:42:17;100588.72;;;19.11;nan
41830;BME280;38614;43.472;23.936;2022-07-17T04:45:06;100606.25;;;19.29;nan
41830;BME280;38614;43.472;23.936;2022-07-17T04:47:54;100600.22;;;19.34;nan
41830;BME280;38614;43.472;23.936;2022-07-17T04:50:44;100604.94;;;19.55;nan
41830;BME280;38614;43.472;23.936;2022-07-17T04:53:34;100594.44;;;19.70;nan
41830;BME280;38614;43.472;23.936;2022-07-17T04:56:23;100609.88;;;19.96;nan
41830;BME280;38614;43.472;23.936;2022-07-17T04:59:10;100589.59;;;20.26;nan
41830;BME280;38614;43.472;23.936;2022-07-17T05:02:00;100610.66;;;20.52;nan
41830;BME280;38614;43.472;23.936;2022-07-17T05:04:48;100601.50;;;20.82;nan
41830;BME280;38614;43.472;23.936;2022-07-17T05:07:36;100587.69;;;20.98;nan
41830;BME280;38614;43.472;23.936;2022-07-17T05:10:24;100618.00;;;21.48;nan
41830;BME280;38614;43.472;23.936;2022-07-17T05:13:14;100613.97;;;21.76;nan
41830;BME280;38614;43.472;23.936;2022-07-17T05:16:02;100625.41;;;22.19;nan
41830;BME280;38614;43.472;23.936;2022-07-17T05:18:49;100618.28;;;22.58;nan
41830;BME280;38614;43.472;23.936;2022-07-17T05:21:38;100605.91;;;22.75;nan
41830;BME280;38614;43.472;23.936;2022-07-17T05:24:26;100614.13;;;23.09;nan
41830;BME280;38614;43.472;23.936;2022-07-17T05:27:14;100609.88;;;23.21;nan
41830;BME280;38614;43.472;23.936;2022-07-17T05:30:03;100624.66;;;23.45;nan
41830;BME280;38614;43.472;23.936;2022-07-17T05:32:53;100603.06;;;23.54;nan
41830;BME280;38614;43.472;23.936;2022-07-17T05:35:41;100629.59;;;24.13;nan
41830;BME280;38614;43.472;23.936;2022-07-17T05:38:28;100616.44;;;24.23;nan
41830;BME280;38614;43.472;23.936;2022-07-17T05:41:16;100639.72;;;24.27;nan
41830;BME280;38614;43.472;23.936;2022-07-17T05:44:04;100611.00;;;24.32;nan
41830;BME280;38614;43.472;23.936;2022-07-17T05:46:52;100643.97;;;24.67;nan
41830;BME280;38614;43.472;23.936;2022-07-17T05:49:40;100603.09;;;24.56;nan
41830;BME280;38614;43.472;23.936;2022-07-17T05:52:28;100631.47;;;24.81;nan
41830;BME280;38614;43.472;23.936;2022-07-17T05:55:16;100647.63;;;25.26;nan
41830;BME280;38614;43.472;23.936;2022-07-17T05:58:04;100618.94;;;25.11;nan
41830;BME280;38614;43.472;23.936;2022-07-17T06:00:51;100610.34;;;25.44;nan
41830;BME280;38614;43.472;23.936;2022-07-17T06:03:41;100621.78;;;25.53;nan
41830;BME280;38614;43.472;23.936;2022-07-17T06:06:30;100623.47;;;25.63;nan
41830;BME280;38614;43.472;23.936;2022-07-17T06:09:17;100634.41;;;25.90;nan
41830;BME280;38614;43.472;23.936;2022-07-17T06:12:05;100640.59;;;26.23;nan
41830;BME280;38614;43.472;23.936;2022-07-17T06:14:53;100636.34;;;26.66;nan
41830;BME280;38614;43.472;23.936;2022-07-17T06:17:43;100629.72;;;26.34;nan
41830;BME280;38614;43.472;23.936;2022-07-17T06:20:31;100612.38;;;26.32;nan
41830;BME280;38614;43.472;23.936;2022-07-17T06:23:19;100622.56;;;26.55;nan
41830;BME280;38614;43.472;23.936;2022-07-17T06:26:10;100634.16;;;26.70;nan
41830;BME280;38614;43.472;23.936;2022-07-17T06:29:00;100628.66;;;26.88;nan
41830;BME280;38614;43.472;23.936;2022-07-17T06:31:48;100613.28;;;26.77;nan
41830;BME280;38614;43.472;23.936;2022-07-17T06:34:36;100607.72;;;27.08;nan
41830;BME280;38614;43.472;23.936;2022-07-17T06:37:23;100623.63;;;27.05;nan
41830;BME280;38614;43.472;23.936;2022-07-17T06:40:11;100626.75;;;27.20;nan
41830;BME280;38614;43.472;23.936;2022-07-17T06:42:59;100638.16;;;27.29;nan
41830;BME280;38614;43.472;23.936;2022-07-17T06:45:47;100645.47;;;27.39;nan
41830;BME280;38614;43.472;23.936;2022-07-17T06:48:35;100648.56;;;27.76;nan
41830;BME280;38614;43.472;23.936;2022-07-17T06:51:23;100618.06;;;28.07;nan
41830;BME280;38614;43.472;23.936;2022-07-17T06:54:12;100646.94;;;28.64;nan
41830;BME280;38614;43.472;23.936;2022-07-17T06:57:01;100612.75;;;28.28;nan
41830;BME280;38614;43.472;23.936;2022-07-17T06:59:49;100631.31;;;28.10;nan
41830;BME280;38614;43.472;23.936;2022-07-17T07:02:37;100650.44;;;28.68;nan
41830;BME280;38614;43.472;23.936;2022-07-17T07:05:25;100644.13;;;28.83;nan
41830;BME280;38614;43.472;23.936;2022-07-17T07:08:12;100627.53;;;28.81;nan
41830;BME280;38614;43.472;23.936;2022-07-17T07:11:01;100637.03;;;29.24;nan
41830;BME280;38614;43.472;23.936;2022-07-17T07:13:50;100655.38;;;29.14;nan
41830;BME280;38614;43.472;23.936;2022-07-17T07:16:38;100641.59;;;29.03;nan
41830;BME280;38614;43.472;23.936;2022-07-17T07:19:26;100646.38;;;29.15;nan
41830;BME280;38614;43.472;23.936;2022-07-17T07:22:14;100644.59;;;29.27;nan
41830;BME280;38614;43.472;23.936;2022-07-17T07:25:04;100628.34;;;29.09;nan
41830;BME280;38614;43.472;23.936;2022-07-17T07:27:53;100646.47;;;29.58;nan
41830;BME280;38614;43.472;23.936;2022-07-17T07:30:41;100637.41;;;29.68;nan
41830;BME280;38614;43.472;23.936;2022-07-17T07:33:29;100657.38;;;30.01;nan
41830;BME280;38614;43.472;23.936;2022-07-17T07:36:16;100652.47;;;30.02;nan
41830;BME280;38614;43.472;23.936;2022-07-17T07:39:04;100656.31;;;30.32;nan
41830;BME280;38614;43.472;23.936;2022-07-17T07:41:52;100632.38;;;30.39;nan
41830;BME280;38614;43.472;23.936;2022-07-17T07:44:40;100653.47;;;30.80;nan
41830;BME280;38614;43.472;23.936;2022-07-17T07:47:27;100624.84;;;30.74;nan
41830;BME280;38614;43.472;23.936;2022-07-17T07:50:16;100647.91;;;30.85;nan
41830;BME280;38614;43.472;23.936;2022-07-17T07:53:04;100645.63;;;30.89;nan
41830;BME280;38614;43.472;23.936;2022-07-17T07:55:51;100649.94;;;31.09;nan
41830;BME280;38614;43.472;23.936;2022-07-17T07:58:39;100658.97;;;30.69;nan
41830;BME280;38614;43.472;23.936;2022-07-17T08:01:27;100649.47;;;30.86;nan
41830;BME280;38614;43.472;23.936;2022-07-17T08:04:15;100649.78;;;31.42;nan
41830;BME280;38614;43.472;23.936;2022-07-17T08:07:03;100611.84;;;31.12;nan
41830;BME280;38614;43.472;23.936;2022-07-17T08:09:51;100647.44;;;31.40;nan
41830;BME280;38614;43.472;23.936;2022-07-17T08:12:38;100638.38;;;31.42;nan
41830;BME280;38614;43.472;23.936;2022-07-17T08:15:32;100623.91;;;31.31;nan
41830;BME280;38614;43.472;23.936;2022-07-17T08:18:20;100628.53;;;31.58;nan
41830;BME280;38614;43.472;23.936;2022-07-17T08:21:11;100639.94;;;31.87;nan
41830;BME280;38614;43.472;23.936;2022-07-17T08:24:04;100617.38;;;32.24;nan
41830;BME280;38614;43.472;23.936;2022-07-17T08:26:52;100609.97;;;31.97;nan
41830;BME280;38614;43.472;23.936;2022-07-17T08:29:40;100624.44;;;32.29;nan
41830;BME280;38614;43.472;23.936;2022-07-17T08:32:47;100631.09;;;31.85;nan
41830;BME280;38614;43.472;23.936;2022-07-17T08:35:36;100618.63;;;32.38;nan
41830;BME280;38614;43.472;23.936;2022-07-17T08:38:24;100613.84;;;31.65;nan
41830;BME280;38614;43.472;23.936;2022-07-17T08:41:14;100621.22;;;31.86;nan
41830;BME280;38614;43.472;23.936;2022-07-17T08:44:09;100616.41;;;32.48;nan
41830;BME280;38614;43.472;23.936;2022-07-17T08:46:56;100611.84;;;32.56;nan
41830;BME280;38614;43.472;23.936;2022-07-17T08:49:48;100609.56;;;32.60;nan
41830;BME280;38614;43.472;23.936;2022-07-17T08:52:41;100616.84;;;32.61;nan
41830;BME280;38614;43.472;23.936;2022-07-17T08:55:29;100616.88;;;32.26;nan
41830;BME280;38614;43.472;23.936;2022-07-17T08:58:17;100600.19;;;32.59;nan
41830;BME280;38614;43.472;23.936;2022-07-17T09:01:08;100603.72;;;32.75;nan
41830;BME280;38614;43.472;23.936;2022-07-17T09:18:20;100616.44;;;32.88;nan
41830;BME280;38614;43.472;23.936;2022-07-17T09:27:40;100626.50;;;32.64;nan
41830;BME280;38614;43.472;23.936;2022-07-17T09:33:18;100585.34;;;32.81;nan
41830;BME280;38614;43.472;23.936;2022-07-17T09:36:09;100610.53;;;32.57;nan
41830;BME280;38614;43.472;23.936;2022-07-17T09:38:57;100602.41;;;33.16;nan
41830;BME280;38614;43.472;23.936;2022-07-17T09:41:56;100616.09;;;33.07;nan
41830;BME280;38614;43.472;23.936;2022-07-17T09:45:03;100596.84;;;33.33;nan
41830;BME280;38614;43.472;23.936;2022-07-17T09:50:44;100592.94;;;32.64;nan
41830;BME280;38614;43.472;23.936;2022-07-17T09:53:33;100609.19;;;32.32;nan
41830;BME280;38614;43.472;23.936;2022-07-17T09:56:25;100591.91;;;32.41;nan
41830;BME280;38614;43.472;23.936;2022-07-17T09:59:14;100602.81;;;32.63;nan
41830;BME280;38614;43.472;23.936;2022-07-17T10:02:02;100594.31;;;32.69;nan
41830;BME280;38614;43.472;23.936;2022-07-17T10:04:53;100534.66;;;32.61;nan
41830;BME280;38614;43.472;23.936;2022-07-17T10:07:42;100588.03;;;33.37;nan
41830;BME280;38614;43.472;23.936;2022-07-17T10:10:30;100557.31;;;32.65;nan
41830;BME280;38614;43.472;23.936;2022-07-17T10:13:19;100581.16;;;32.56;nan
41830;BME280;38614;43.472;23.936;2022-07-17T10:16:08;100592.34;;;33.01;nan
41830;BME280;38614;43.472;23.936;2022-07-17T10:18:57;100571.47;;;33.21;nan
41830;BME280;38614;43.472;23.936;2022-07-17T10:22:04;100573.53;;;33.20;nan
41830;BME280;38614;43.472;23.936;2022-07-17T10:24:54;100568.09;;;33.48;nan
41830;BME280;38614;43.472;23.936;2022-07-17T10:27:54;100584.31;;;33.57;nan
41830;BME280;38614;43.472;23.936;2022-07-17T10:30:43;100573.63;;;33.89;nan
41830;BME280;38614;43.472;23.936;2022-07-17T10:33:36;100545.41;;;33.82;nan
41830;BME280;38614;43.472;23.936;2022-07-17T10:39:21;100563.09;;;33.43;nan
41830;BME280;38614;43.472;23.936;2022-07-17T10:42:09;100565.34;;;33.65;nan
41830;BME280;38614;43.472;23.936;2022-07-17T10:45:09;100542.69;;;33.67;nan
41830;BME280;38614;43.472;23.936;2022-07-17T10:48:04;100566.09;;;33.91;nan
41830;BME280;38614;43.472;23.936;2022-07-17T10:50:54;100576.34;;;34.09;nan
41830;BME280;38614;43.472;23.936;2022-07-17T10:56:31;100543.91;;;33.23;nan
41830;BME280;38614;43.472;23.936;2022-07-17T10:59:19;100555.16;;;33.95;nan
41830;BME280;38614;43.472;23.936;2022-07-17T11:02:08;100540.59;;;33.99;nan
41830;BME280;38614;43.472;23.936;2022-07-17T11:07:58;100561.00;;;33.75;nan
41830;BME280;38614;43.472;23.936;2022-07-17T11:10:47;100565.47;;;34.19;nan
41830;BME280;38614;43.472;23.936;2022-07-17T11:13:35;100555.25;;;33.75;nan
41830;BME280;38614;43.472;23.936;2022-07-17T11:22:24;100551.81;;;34.03;nan
41830;BME280;38614;43.472;23.936;2022-07-17T11:25:13;100545.25;;;34.39;nan
41830;BME280;38614;43.472;23.936;2022-07-17T11:28:00;100525.53;;;34.10;nan
41830;BME280;38614;43.472;23.936;2022-07-17T11:30:48;100534.31;;;33.95;nan
41830;BME280;38614;43.472;23.936;2022-07-17T11:33:39;100558.63;;;33.73;nan
41830;BME280;38614;43.472;23.936;2022-07-17T11:39:22;100554.91;;;33.62;nan
41830;BME280;38614;43.472;23.936;2022-07-17T11:45:03;100534.31;;;33.95;nan
41830;BME280;38614;43.472;23.936;2022-07-17T11:48:01;100529.91;;;33.99;nan
41830;BME280;38614;43.472;23.936;2022-07-17T11:53:40;100520.63;;;34.21;nan
41830;BME280;38614;43.472;23.936;2022-07-17T11:56:28;100514.63;;;34.25;nan
41830;BME280;38614;43.472;23.936;2022-07-17T11:59:30;100526.63;;;34.18;nan
41830;BME280;38614;43.472;23.936;2022-07-17T12:02:20;100532.75;;;33.94;nan
41830;BME280;38614;43.472;23.936;2022-07-17T12:05:11;100532.88;;;34.16;nan
41830;BME280;38614;43.472;23.936;2022-07-17T12:07:59;100522.22;;;33.85;nan
41830;BME280;38614;43.472;23.936;2022-07-17T12:10:47;100503.75;;;33.43;nan
41830;BME280;38614;43.472;23.936;2022-07-17T12:16:32;100519.75;;;33.61;nan
41830;BME280;38614;43.472;23.936;2022-07-17T12:19:23;100506.47;;;33.64;nan
41830;BME280;38614;43.472;23.936;2022-07-17T12:22:11;100518.91;;;33.55;nan
41830;BME280;38614;43.472;23.936;2022-07-17T12:24:59;100519.91;;;32.89;nan
41830;BME280;38614;43.472;23.936;2022-07-17T12:27:46;100519.72;;;33.30;nan
41830;BME280;38614;43.472;23.936;2022-07-17T12:30:36;100470.31;;;33.03;nan
41830;BME280;38614;43.472;23.936;2022-07-17T12:33:24;100499.66;;;33.56;nan
41830;BME280;38614;43.472;23.936;2022-07-17T12:36:15;100495.84;;;33.70;nan
41830;BME280;38614;43.472;23.936;2022-07-17T12:39:03;100479.38;;;33.28;nan
41830;BME280;38614;43.472;23.936;2022-07-17T12:41:51;100480.13;;;33.23;nan
41830;BME280;38614;43.472;23.936;2022-07-17T12:44:38;100468.81;;;33.39;nan
41830;BME280;38614;43.472;23.936;2022-07-17T12:47:26;100496.94;;;33.84;nan
41830;BME280;38614;43.472;23.936;2022-07-17T12:50:14;100490.13;;;33.76;nan
41830;BME280;38614;43.472;23.936;2022-07-17T12:53:02;100479.84;;;33.58;nan
41830;BME280;38614;43.472;23.936;2022-07-17T12:55:52;100483.88;;;33.77;nan
41830;BME280;38614;43.472;23.936;2022-07-17T12:58:44;100480.66;;;34.01;nan
41830;BME280;38614;43.472;23.936;2022-07-17T13:01:31;100473.84;;;33.93;nan
41830;BME280;38614;43.472;23.936;2022-07-17T13:04:19;100471.81;;;33.62;nan
41830;BME280;38614;43.472;23.936;2022-07-17T13:07:08;100476.78;;;33.61;nan
41830;BME280;38614;43.472;23.936;2022-07-17T13:09:56;100479.06;;;33.57;nan
41830;BME280;38614;43.472;23.936;2022-07-17T13:12:46;100467.31;;;33.50;nan
41830;BME280;38614;43.472;23.936;2022-07-17T13:15:38;100442.66;;;33.63;nan
41830;BME280;38614;43.472;23.936;2022-07-17T13:18:29;100460.13;;;33.65;nan
41830;BME280;38614;43.472;23.936;2022-07-17T13:21:17;100468.19;;;33.30;nan
41830;BME280;38614;43.472;23.936;2022-07-17T13:24:06;100463.59;;;33.38;nan
41830;BME280;38614;43.472;23.936;2022-07-17T13:26:54;100458.38;;;33.36;nan
41830;BME280;38614;43.472;23.936;2022-07-17T13:29:41;100452.88;;;33.33;nan
41830;BME280;38614;43.472;23.936;2022-07-17T13:32:29;100430.72;;;32.96;nan
41830;BME280;38614;43.472;23.936;2022-07-17T13:35:17;100457.59;;;33.04;nan
41830;BME280;38614;43.472;23.936;2022-07-17T13:38:05;100457.88;;;33.06;nan
41830;BME280;38614;43.472;23.936;2022-07-17T13:43:42;100450.72;;;33.28;nan
41830;BME280;38614;43.472;23.936;2022-07-17T13:46:30;100450.41;;;33.20;nan
41830;BME280;38614;43.472;23.936;2022-07-17T13:49:18;100439.75;;;32.89;nan
41830;BME280;38614;43.472;23.936;2022-07-17T13:52:11;100432.75;;;32.90;nan
41830;BME280;38614;43.472;23.936;2022-07-17T13:58:12;100440.44;;;33.10;nan
41830;BME280;38614;43.472;23.936;2022-07-17T14:01:00;100443.72;;;32.97;nan
41830;BME280;38614;43.472;23.936;2022-07-17T14:06:36;100440.59;;;32.95;nan
41830;BME280;38614;43.472;23.936;2022-07-17T14:12:12;100456.34;;;32.85;nan
41830;BME280;38614;43.472;23.936;2022-07-17T14:15:18;100447.56;;;32.63;nan
41830;BME280;38614;43.472;23.936;2022-07-17T14:18:06;100444.25;;;32.70;nan
41830;BME280;38614;43.472;23.936;2022-07-17T14:23:44;100404.47;;;32.46;nan
41830;BME280;38614;43.472;23.936;2022-07-17T14:26:37;100383.41;;;32.43;nan
41830;BME280;38614;43.472;23.936;2022-07-17T14:29:26;100441.56;;;32.60;nan
41830;BME280;38614;43.472;23.936;2022-07-17T14:32:13;100429.06;;;32.58;nan
41830;BME280;38614;43.472;23.936;2022-07-17T14:35:01;100464.19;;;32.64;nan
41830;BME280;38614;43.472;23.936;2022-07-17T14:40:36;100464.34;;;32.09;nan
41830;BME280;38614;43.472;23.936;2022-07-17T14:43:27;100475.31;;;32.30;nan
41830;BME280;38614;43.472;23.936;2022-07-17T14:46:15;100472.88;;;32.29;nan
41830;BME280;38614;43.472;23.936;2022-07-17T14:54:39;100453.47;;;32.33;nan
41830;BME280;38614;43.472;23.936;2022-07-17T14:57:27;100438.75;;;31.99;nan
41830;BME280;38614;43.472;23.936;2022-07-17T15:00:14;100449.28;;;31.73;nan
41830;BME280;38614;43.472;23.936;2022-07-17T15:03:05;100425.84;;;31.48;nan
41830;BME280;38614;43.472;23.936;2022-07-17T15:05:53;100439.50;;;31.59;nan
41830;BME280;38614;43.472;23.936;2022-07-17T15:08:46;100447.19;;;31.88;nan
41830;BME280;38614;43.472;23.936;2022-07-17T15:11:35;100465.50;;;31.96;nan
41830;BME280;38614;43.472;23.936;2022-07-17T15:14:33;100445.34;;;31.85;nan
41830;BME280;38614;43.472;23.936;2022-07-17T15:17:20;100446.66;;;31.69;nan
41830;BME280;38614;43.472;23.936;2022-07-17T15:20:09;100430.69;;;31.42;nan
41830;BME280;38614;43.472;23.936;2022-07-17T15:23:02;100441.44;;;31.47;nan
41830;BME280;38614;43.472;23.936;2022-07-17T15:25:52;100437.94;;;31.23;nan
41830;BME280;38614;43.472;23.936;2022-07-17T15:28:43;100423.47;;;31.12;nan
41830;BME280;38614;43.472;23.936;2022-07-17T15:34:18;100425.03;;;30.98;nan
41830;BME280;38614;43.472;23.936;2022-07-17T15:37:11;100440.31;;;31.10;nan
41830;BME280;38614;43.472;23.936;2022-07-17T15:39:59;100427.94;;;30.83;nan
41830;BME280;38614;43.472;23.936;2022-07-17T15:42:57;100383.75;;;30.34;nan
41830;BME280;38614;43.472;23.936;2022-07-17T15:48:33;100446.81;;;30.66;nan
41830;BME280;38614;43.472;23.936;2022-07-17T15:51:25;100452.41;;;30.75;nan
41830;BME280;38614;43.472;23.936;2022-07-17T15:54:16;100412.44;;;30.31;nan
41830;BME280;38614;43.472;23.936;2022-07-17T15:57:04;99587.63;;;25.15;nan
41830;BME280;38614;43.472;23.936;2022-07-17T15:59:52;100451.19;;;30.52;nan
41830;BME280;38614;43.472;23.936;2022-07-17T16:02:39;100459.28;;;30.54;nan
41830;BME280;38614;43.472;23.936;2022-07-17T16:05:27;100445.56;;;30.43;nan
41830;BME280;38614;43.472;23.936;2022-07-17T16:08:15;100455.41;;;30.42;nan
41830;BME280;38614;43.472;23.936;2022-07-17T16:11:03;100456.31;;;30.48;nan
41830;BME280;38614;43.472;23.936;2022-07-17T16:13:50;100454.13;;;30.43;nan
41830;BME280;38614;43.472;23.936;2022-07-17T16:16:40;100470.34;;;30.37;nan